Terminal Aerodrome Forecast
Issued by NWS Charleston, WV

Current Version | Previous Version | Graphics & Text | Print | Product List | Glossary On
Versions: 1 2 3 4 5 6 7 8 9 10 11 12 13 14 15 16 17 18 19 20 21 22 23 24 25 26 27 28 29
000
FTUS41 KRLX 200800 AAA
TAFEKN
TAF AMD
KEKN 200826Z 2008/2106 15009KT P6SM SCT050
      TEMPO 2009/2012 BKN025
     FM201200 18004KT P6SM BKN035
     FM201400 20004KT P6SM SCT050=

USA.gov is the U.S. government's official web portal to all federal, state and local government web resources and services.